VRG202 SBPK-SBPA
Flight info
| Callsign | VRG202 |
|---|---|
| Flight time | 0h 54m |
| Altitude | 7000 |
| Route | PTS A309 POR |
| Aircraft | DC3/M-SDE3C/C |
Departure
| Time | 2026-05-06 11:42 |
|---|---|
| Airport | João Simões Lopes Neto International Airport (SBPK) |
Arrival
| Time | 2026-05-06 12:36 |
|---|---|
| Airport | Porto Alegre-Salgado Filho International Airport (SBPA) |
| Time | Latitude | Longitude | Altitude | Speed | Heading |
|---|---|---|---|---|---|
| 2026-05-06 11:26 | -31.71631 | -52.32982 | 67 ft | 0 kts | 140° |
| 2026-05-06 11:28 | -31.71631 | -52.32983 | 67 ft | 0 kts | 140° |
| 2026-05-06 11:28 | -31.71630 | -52.32983 | 67 ft | 0 kts | 140° |
| 2026-05-06 11:32 | -31.71629 | -52.32984 | 67 ft | 0 kts | 140° |
| 2026-05-06 11:34 | -31.71630 | -52.32982 | 67 ft | 0 kts | 159° |
| 2026-05-06 11:34 | -31.71643 | -52.32994 | 60 ft | 7 kts | 243° |
| 2026-05-06 11:34 | -31.71672 | -52.33045 | 66 ft | 9 kts | 228° |
| 2026-05-06 11:34 | -31.71728 | -52.33033 | 64 ft | 10 kts | 138° |
| 2026-05-06 11:35 | -31.71771 | -52.32988 | 64 ft | 0 kts | 137° |
| 2026-05-06 11:35 | -31.71771 | -52.32987 | 64 ft | 1 kts | 138° |
| 2026-05-06 11:36 | -31.71804 | -52.32955 | 60 ft | 12 kts | 123° |
| 2026-05-06 11:36 | -31.71764 | -52.32851 | 62 ft | 19 kts | 48° |
| 2026-05-06 11:36 | -31.71667 | -52.32715 | 64 ft | 23 kts | 51° |
| 2026-05-06 11:36 | -31.71565 | -52.32570 | 65 ft | 23 kts | 50° |
| 2026-05-06 11:37 | -31.71460 | -52.32420 | 63 ft | 24 kts | 53° |
| 2026-05-06 11:37 | -31.71357 | -52.32266 | 61 ft | 25 kts | 51° |
| 2026-05-06 11:37 | -31.71248 | -52.32109 | 64 ft | 23 kts | 51° |
| 2026-05-06 11:37 | -31.71160 | -52.32002 | 62 ft | 12 kts | 70° |
| 2026-05-06 11:38 | -31.71176 | -52.31994 | 59 ft | 3 kts | 248° |
| 2026-05-06 11:38 | -31.71192 | -52.32020 | 63 ft | 6 kts | 231° |
| 2026-05-06 11:38 | -31.71205 | -52.32038 | 60 ft | 0 kts | 231° |
| 2026-05-06 11:38 | -31.71206 | -52.32041 | 60 ft | 2 kts | 240° |
| 2026-05-06 11:39 | -31.71212 | -52.32051 | 61 ft | 0 kts | 228° |
| 2026-05-06 11:39 | -31.71219 | -52.32062 | 60 ft | 3 kts | 236° |
| 2026-05-06 11:39 | -31.71224 | -52.32070 | 60 ft | 0 kts | 232° |
| 2026-05-06 11:41 | -31.71225 | -52.32070 | 60 ft | 1 kts | 232° |
| 2026-05-06 11:41 | -31.71279 | -52.32156 | 64 ft | 33 kts | 233° |
| 2026-05-06 11:41 | -31.71484 | -52.32529 | 61 ft | 72 kts | 233° |
| 2026-05-06 11:41 | -31.71880 | -52.33030 | 121 ft | 89 kts | 223° |
| 2026-05-06 11:42 | -31.72337 | -52.33547 | 358 ft | 94 kts | 225° |
| 2026-05-06 11:42 | -31.72661 | -52.34185 | 679 ft | 91 kts | 279° |
| 2026-05-06 11:42 | -31.72245 | -52.34574 | 897 ft | 87 kts | 7° |
| 2026-05-06 11:42 | -31.71845 | -52.34041 | 1087 ft | 98 kts | 67° |
| 2026-05-06 11:43 | -31.71581 | -52.33309 | 1367 ft | 95 kts | 61° |
| 2026-05-06 11:43 | -31.71254 | -52.32669 | 1701 ft | 86 kts | 45° |
| 2026-05-06 11:43 | -31.70894 | -52.31997 | 1759 ft | 109 kts | 54° |
| 2026-05-06 11:44 | -31.69935 | -52.30483 | 2136 ft | 118 kts | 34° |
| 2026-05-06 11:44 | -31.69232 | -52.29994 | 2371 ft | 117 kts | 22° |
| 2026-05-06 11:44 | -31.68513 | -52.29553 | 2619 ft | 116 kts | 20° |
| 2026-05-06 11:44 | -31.67872 | -52.28938 | 2825 ft | 126 kts | 47° |
| 2026-05-06 11:45 | -31.67270 | -52.28247 | 3026 ft | 118 kts | 20° |
| 2026-05-06 11:45 | -31.66543 | -52.27794 | 3249 ft | 119 kts | 21° |
| 2026-05-06 11:45 | -31.65830 | -52.27290 | 3474 ft | 119 kts | 20° |
| 2026-05-06 11:45 | -31.65120 | -52.26809 | 3688 ft | 119 kts | 20° |
| 2026-05-06 11:46 | -31.64404 | -52.26321 | 3909 ft | 119 kts | 19° |
| 2026-05-06 11:46 | -31.63688 | -52.25831 | 4135 ft | 119 kts | 20° |
| 2026-05-06 11:46 | -31.62974 | -52.25348 | 4348 ft | 119 kts | 19° |
| 2026-05-06 11:46 | -31.62262 | -52.24862 | 4559 ft | 118 kts | 19° |
| 2026-05-06 11:47 | -31.61550 | -52.24379 | 4771 ft | 118 kts | 18° |
| 2026-05-06 11:47 | -31.60841 | -52.23896 | 4977 ft | 118 kts | 18° |
| 2026-05-06 11:47 | -31.60134 | -52.23418 | 5182 ft | 118 kts | 18° |
| 2026-05-06 11:47 | -31.59433 | -52.22940 | 5380 ft | 117 kts | 18° |
| 2026-05-06 11:48 | -31.58721 | -52.22463 | 5596 ft | 119 kts | 17° |
| 2026-05-06 11:48 | -31.57994 | -52.21968 | 5831 ft | 122 kts | 18° |
| 2026-05-06 11:48 | -31.57256 | -52.21468 | 6069 ft | 123 kts | 17° |
| 2026-05-06 11:48 | -31.56516 | -52.20964 | 6311 ft | 123 kts | 18° |
| 2026-05-06 11:49 | -31.55771 | -52.20460 | 6550 ft | 124 kts | 17° |
| 2026-05-06 11:49 | -31.55014 | -52.19947 | 6792 ft | 126 kts | 18° |
| 2026-05-06 11:49 | -31.54249 | -52.19427 | 7003 ft | 130 kts | 17° |
| 2026-05-06 11:49 | -31.53401 | -52.18865 | 7021 ft | 149 kts | 19° |
| 2026-05-06 11:50 | -31.52460 | -52.18219 | 7035 ft | 163 kts | 20° |
| 2026-05-06 11:50 | -31.51445 | -52.17532 | 7046 ft | 173 kts | 21° |
| 2026-05-06 11:50 | -31.50378 | -52.16805 | 7048 ft | 180 kts | 21° |
| 2026-05-06 11:50 | -31.49291 | -52.16067 | 7049 ft | 184 kts | 22° |
| 2026-05-06 11:51 | -31.48176 | -52.15302 | 7046 ft | 187 kts | 21° |
| 2026-05-06 11:51 | -31.47034 | -52.14540 | 7046 ft | 190 kts | 21° |
| 2026-05-06 11:51 | -31.45885 | -52.13759 | 7044 ft | 192 kts | 22° |
| 2026-05-06 11:51 | -31.44731 | -52.12971 | 7037 ft | 192 kts | 22° |
| 2026-05-06 11:52 | -31.43572 | -52.12189 | 7033 ft | 192 kts | 21° |
| 2026-05-06 11:52 | -31.42422 | -52.11407 | 7026 ft | 190 kts | 22° |
| 2026-05-06 11:52 | -31.41284 | -52.10638 | 7021 ft | 188 kts | 21° |
| 2026-05-06 11:52 | -31.40156 | -52.09879 | 7021 ft | 186 kts | 22° |
| 2026-05-06 11:53 | -31.39035 | -52.09118 | 7017 ft | 185 kts | 22° |
| 2026-05-06 11:53 | -31.37920 | -52.08367 | 7022 ft | 184 kts | 21° |
| 2026-05-06 11:53 | -31.36809 | -52.07619 | 7019 ft | 184 kts | 21° |
| 2026-05-06 11:53 | -31.35699 | -52.06867 | 7016 ft | 184 kts | 22° |
| 2026-05-06 11:54 | -31.34605 | -52.06128 | 7019 ft | 184 kts | 22° |
| 2026-05-06 11:54 | -31.33496 | -52.05382 | 7012 ft | 184 kts | 22° |
| 2026-05-06 11:54 | -31.32386 | -52.04632 | 7018 ft | 184 kts | 22° |
| 2026-05-06 11:54 | -31.31274 | -52.03885 | 7017 ft | 184 kts | 22° |
| 2026-05-06 11:55 | -31.30167 | -52.03138 | 7015 ft | 184 kts | 22° |
| 2026-05-06 11:55 | -31.29064 | -52.02384 | 7015 ft | 184 kts | 24° |
| 2026-05-06 11:55 | -31.27973 | -52.01600 | 7012 ft | 183 kts | 21° |
| 2026-05-06 11:55 | -31.26904 | -52.00772 | 6990 ft | 192 kts | 39° |
| 2026-05-06 11:56 | -31.26387 | -51.99296 | 6977 ft | 206 kts | 83° |
| 2026-05-06 11:56 | -31.26812 | -51.97713 | 6979 ft | 208 kts | 128° |
| 2026-05-06 11:56 | -31.27964 | -51.96788 | 6995 ft | 199 kts | 165° |
| 2026-05-06 11:56 | -31.29254 | -51.96277 | 7011 ft | 198 kts | 166° |
| 2026-05-06 11:57 | -31.30534 | -51.95666 | 7011 ft | 202 kts | 155° |
| 2026-05-06 11:57 | -31.31575 | -51.94534 | 7002 ft | 207 kts | 128° |
| 2026-05-06 11:57 | -31.32119 | -51.92997 | 6995 ft | 206 kts | 94° |
| 2026-05-06 11:57 | -31.31967 | -51.91364 | 6993 ft | 199 kts | 63° |
| 2026-05-06 11:58 | -31.31092 | -51.90235 | 6988 ft | 182 kts | 19° |
| 2026-05-06 11:58 | -31.29927 | -51.90148 | 6989 ft | 164 kts | 335° |
| 2026-05-06 11:58 | -31.29176 | -51.91045 | 6994 ft | 157 kts | 290° |
| 2026-05-06 11:58 | -31.28951 | -51.92272 | 7098 ft | 152 kts | 296° |
| 2026-05-06 11:59 | -31.28115 | -51.93058 | 7041 ft | 164 kts | 335° |
| 2026-05-06 11:59 | -31.26959 | -51.93151 | 7103 ft | 168 kts | 357° |
| 2026-05-06 11:59 | -31.25823 | -51.93082 | 7219 ft | 162 kts | 353° |
| 2026-05-06 11:59 | -31.24698 | -51.93064 | 7213 ft | 165 kts | 353° |
| 2026-05-06 12:00 | -31.23543 | -51.93050 | 7211 ft | 166 kts | 353° |
| 2026-05-06 12:00 | -31.22381 | -51.93042 | 7221 ft | 168 kts | 353° |
| 2026-05-06 12:00 | -31.21209 | -51.93035 | 7214 ft | 169 kts | 353° |
| 2026-05-06 12:00 | -31.20033 | -51.93029 | 7214 ft | 169 kts | 353° |
| 2026-05-06 12:01 | -31.18857 | -51.93031 | 7223 ft | 169 kts | 352° |
| 2026-05-06 12:01 | -31.17673 | -51.93039 | 7212 ft | 170 kts | 353° |
| 2026-05-06 12:01 | -31.16483 | -51.93037 | 7217 ft | 171 kts | 354° |
| 2026-05-06 12:01 | -31.15285 | -51.92911 | 7216 ft | 176 kts | 3° |
| 2026-05-06 12:02 | -31.14132 | -51.92401 | 7213 ft | 184 kts | 20° |
| 2026-05-06 12:02 | -31.13032 | -51.91616 | 7208 ft | 185 kts | 24° |
| 2026-05-06 12:02 | -31.11925 | -51.90862 | 7212 ft | 183 kts | 21° |
| 2026-05-06 12:02 | -31.10809 | -51.90131 | 7211 ft | 184 kts | 22° |
| 2026-05-06 12:03 | -31.09700 | -51.89376 | 7211 ft | 184 kts | 23° |
| 2026-05-06 12:03 | -31.08589 | -51.88632 | 7211 ft | 184 kts | 22° |
| 2026-05-06 12:03 | -31.07475 | -51.87888 | 7210 ft | 185 kts | 22° |
| 2026-05-06 12:03 | -31.06360 | -51.87138 | 7219 ft | 185 kts | 22° |
| 2026-05-06 12:04 | -31.05246 | -51.86392 | 7210 ft | 185 kts | 22° |
| 2026-05-06 12:04 | -31.04127 | -51.85641 | 7213 ft | 185 kts | 22° |
| 2026-05-06 12:04 | -31.03009 | -51.84896 | 7212 ft | 184 kts | 22° |
| 2026-05-06 12:04 | -31.01897 | -51.84153 | 7219 ft | 185 kts | 22° |
| 2026-05-06 12:05 | -31.00778 | -51.83402 | 7210 ft | 185 kts | 22° |
| 2026-05-06 12:05 | -30.99676 | -51.82667 | 7214 ft | 185 kts | 22° |
| 2026-05-06 12:05 | -30.98563 | -51.81919 | 7214 ft | 185 kts | 23° |
| 2026-05-06 12:05 | -30.97446 | -51.81175 | 7213 ft | 184 kts | 22° |
| 2026-05-06 12:06 | -30.96330 | -51.80428 | 7216 ft | 185 kts | 23° |
| 2026-05-06 12:06 | -30.95213 | -51.79680 | 7211 ft | 185 kts | 23° |
| 2026-05-06 12:06 | -30.94096 | -51.78930 | 7211 ft | 185 kts | 22° |
| 2026-05-06 12:06 | -30.92978 | -51.78183 | 7209 ft | 185 kts | 22° |
| 2026-05-06 12:07 | -30.91859 | -51.77440 | 7210 ft | 185 kts | 22° |
| 2026-05-06 12:07 | -30.90744 | -51.76694 | 7213 ft | 185 kts | 22° |
| 2026-05-06 12:07 | -30.89638 | -51.75957 | 7212 ft | 185 kts | 22° |
| 2026-05-06 12:07 | -30.88519 | -51.75216 | 7211 ft | 185 kts | 22° |
| 2026-05-06 12:08 | -30.87398 | -51.74467 | 7213 ft | 185 kts | 23° |
| 2026-05-06 12:08 | -30.86280 | -51.73716 | 7210 ft | 186 kts | 22° |
| 2026-05-06 12:08 | -30.85157 | -51.72971 | 7215 ft | 186 kts | 22° |
| 2026-05-06 12:08 | -30.84032 | -51.72225 | 7214 ft | 186 kts | 22° |
| 2026-05-06 12:09 | -30.82919 | -51.71452 | 7210 ft | 189 kts | 29° |
| 2026-05-06 12:09 | -30.81900 | -51.70470 | 7195 ft | 187 kts | 26° |
| 2026-05-06 12:09 | -30.80725 | -51.69912 | 7208 ft | 182 kts | 12° |
| 2026-05-06 12:09 | -30.79564 | -51.69288 | 7204 ft | 186 kts | 22° |
| 2026-05-06 12:10 | -30.78449 | -51.68507 | 7211 ft | 188 kts | 24° |
| 2026-05-06 12:10 | -30.77334 | -51.67751 | 7211 ft | 187 kts | 22° |
| 2026-05-06 12:10 | -30.76202 | -51.67003 | 7214 ft | 187 kts | 22° |
| 2026-05-06 12:10 | -30.75071 | -51.66259 | 7213 ft | 187 kts | 22° |
| 2026-05-06 12:11 | -30.73949 | -51.65494 | 7210 ft | 188 kts | 26° |
| 2026-05-06 12:11 | -30.72852 | -51.64664 | 7208 ft | 187 kts | 22° |
| 2026-05-06 12:11 | -30.71692 | -51.63992 | 7210 ft | 186 kts | 19° |
| 2026-05-06 12:11 | -30.70549 | -51.63269 | 7212 ft | 187 kts | 23° |
| 2026-05-06 12:12 | -30.69425 | -51.62498 | 7210 ft | 187 kts | 23° |
| 2026-05-06 12:12 | -30.68297 | -51.61752 | 7214 ft | 187 kts | 22° |
| 2026-05-06 12:12 | -30.67185 | -51.61012 | 7215 ft | 187 kts | 22° |
| 2026-05-06 12:12 | -30.66053 | -51.60266 | 7215 ft | 187 kts | 22° |
| 2026-05-06 12:13 | -30.64923 | -51.59516 | 7216 ft | 187 kts | 22° |
| 2026-05-06 12:13 | -30.63790 | -51.58768 | 7216 ft | 187 kts | 22° |
| 2026-05-06 12:13 | -30.62659 | -51.58013 | 7210 ft | 187 kts | 22° |
| 2026-05-06 12:13 | -30.61551 | -51.57261 | 7217 ft | 188 kts | 26° |
| 2026-05-06 12:14 | -30.60445 | -51.56450 | 7207 ft | 187 kts | 22° |
| 2026-05-06 12:14 | -30.59293 | -51.55769 | 7211 ft | 186 kts | 20° |
| 2026-05-06 12:14 | -30.58153 | -51.55062 | 7213 ft | 186 kts | 22° |
| 2026-05-06 12:14 | -30.57022 | -51.54332 | 7210 ft | 186 kts | 22° |
| 2026-05-06 12:15 | -30.55923 | -51.53518 | 7211 ft | 192 kts | 33° |
| 2026-05-06 12:15 | -30.55069 | -51.52295 | 7204 ft | 198 kts | 51° |
| 2026-05-06 12:15 | -30.54130 | -51.51192 | 7193 ft | 188 kts | 25° |
| 2026-05-06 12:15 | -30.52933 | -51.50769 | 7208 ft | 176 kts | 358° |
| 2026-05-06 12:16 | -30.51711 | -51.50621 | 7205 ft | 178 kts | 4° |
| 2026-05-06 12:16 | -30.50539 | -51.50057 | 7208 ft | 186 kts | 23° |
| 2026-05-06 12:16 | -30.49450 | -51.49267 | 7211 ft | 186 kts | 24° |
| 2026-05-06 12:16 | -30.48333 | -51.48520 | 7214 ft | 185 kts | 22° |
| 2026-05-06 12:17 | -30.47206 | -51.47788 | 7210 ft | 185 kts | 22° |
| 2026-05-06 12:17 | -30.46086 | -51.47050 | 7211 ft | 185 kts | 22° |
| 2026-05-06 12:17 | -30.44964 | -51.46308 | 7215 ft | 185 kts | 22° |
| 2026-05-06 12:17 | -30.43837 | -51.45569 | 7214 ft | 186 kts | 22° |
| 2026-05-06 12:18 | -30.42716 | -51.44823 | 7216 ft | 186 kts | 23° |
| 2026-05-06 12:18 | -30.41592 | -51.44078 | 7220 ft | 186 kts | 23° |
| 2026-05-06 12:18 | -30.40466 | -51.43339 | 7222 ft | 186 kts | 22° |
| 2026-05-06 12:18 | -30.39342 | -51.42596 | 7225 ft | 186 kts | 22° |
| 2026-05-06 12:19 | -30.38212 | -51.41853 | 7224 ft | 187 kts | 22° |
| 2026-05-06 12:19 | -30.37077 | -51.41110 | 7224 ft | 187 kts | 22° |
| 2026-05-06 12:19 | -30.35946 | -51.40362 | 7220 ft | 188 kts | 23° |
| 2026-05-06 12:19 | -30.34813 | -51.39608 | 7221 ft | 187 kts | 23° |
| 2026-05-06 12:20 | -30.34062 | -51.39117 | 7222 ft | 187 kts | 22° |
| 2026-05-06 12:20 | -30.32928 | -51.38374 | 7221 ft | 187 kts | 22° |
| 2026-05-06 12:20 | -30.31796 | -51.37624 | 7217 ft | 188 kts | 23° |
| 2026-05-06 12:20 | -30.30296 | -51.36641 | 7219 ft | 186 kts | 22° |
| 2026-05-06 12:21 | -30.29169 | -51.35898 | 7217 ft | 186 kts | 22° |
| 2026-05-06 12:21 | -30.28423 | -51.35410 | 7220 ft | 186 kts | 22° |
| 2026-05-06 12:21 | -30.27301 | -51.34668 | 7211 ft | 185 kts | 23° |
| 2026-05-06 12:21 | -30.26180 | -51.33934 | 7214 ft | 185 kts | 22° |
| 2026-05-06 12:22 | -30.25057 | -51.33195 | 7215 ft | 186 kts | 23° |
| 2026-05-06 12:22 | -30.23931 | -51.32457 | 7211 ft | 186 kts | 23° |
| 2026-05-06 12:22 | -30.22806 | -51.31721 | 7208 ft | 185 kts | 23° |
| 2026-05-06 12:22 | -30.21688 | -51.30981 | 7206 ft | 185 kts | 23° |
| 2026-05-06 12:23 | -30.20569 | -51.30250 | 7204 ft | 185 kts | 22° |
| 2026-05-06 12:23 | -30.19450 | -51.29515 | 7197 ft | 185 kts | 23° |
| 2026-05-06 12:23 | -30.18333 | -51.28780 | 7194 ft | 185 kts | 22° |
| 2026-05-06 12:23 | -30.17204 | -51.28047 | 7063 ft | 191 kts | 23° |
| 2026-05-06 12:24 | -30.16007 | -51.27265 | 6737 ft | 200 kts | 24° |
| 2026-05-06 12:24 | -30.14791 | -51.26453 | 6386 ft | 204 kts | 24° |
| 2026-05-06 12:24 | -30.13560 | -51.25648 | 6097 ft | 202 kts | 24° |
| 2026-05-06 12:24 | -30.12365 | -51.24863 | 5868 ft | 194 kts | 24° |
| 2026-05-06 12:25 | -30.11213 | -51.24101 | 5636 ft | 189 kts | 24° |
| 2026-05-06 12:25 | -30.10070 | -51.23360 | 5392 ft | 188 kts | 24° |
| 2026-05-06 12:25 | -30.08953 | -51.22633 | 5152 ft | 184 kts | 24° |
| 2026-05-06 12:25 | -30.07864 | -51.21913 | 4884 ft | 177 kts | 24° |
| 2026-05-06 12:26 | -30.06801 | -51.21217 | 4626 ft | 174 kts | 24° |
| 2026-05-06 12:26 | -30.05758 | -51.20538 | 4349 ft | 170 kts | 24° |
| 2026-05-06 12:26 | -30.04732 | -51.19870 | 4089 ft | 168 kts | 24° |
| 2026-05-06 12:26 | -30.03718 | -51.19203 | 3849 ft | 166 kts | 25° |
| 2026-05-06 12:27 | -30.02729 | -51.18581 | 3699 ft | 158 kts | 22° |
| 2026-05-06 12:27 | -30.01759 | -51.18004 | 3480 ft | 157 kts | 21° |
| 2026-05-06 12:27 | -30.00757 | -51.17478 | 3204 ft | 158 kts | 17° |
| 2026-05-06 12:27 | -29.99739 | -51.17110 | 3121 ft | 143 kts | 358° |
| 2026-05-06 12:28 | -29.98938 | -51.17547 | 3088 ft | 125 kts | 306° |
| 2026-05-06 12:28 | -29.98836 | -51.18502 | 3058 ft | 122 kts | 269° |
| 2026-05-06 12:28 | -29.98947 | -51.19435 | 3033 ft | 115 kts | 267° |
| 2026-05-06 12:28 | -29.99081 | -51.20403 | 3023 ft | 127 kts | 265° |
| 2026-05-06 12:29 | -29.99261 | -51.21371 | 3117 ft | 125 kts | 262° |
| 2026-05-06 12:29 | -29.99512 | -51.22373 | 3087 ft | 135 kts | 258° |
| 2026-05-06 12:29 | -30.00043 | -51.23295 | 3016 ft | 144 kts | 225° |
| 2026-05-06 12:29 | -30.00989 | -51.23704 | 2882 ft | 156 kts | 187° |
| 2026-05-06 12:30 | -30.02003 | -51.23215 | 2649 ft | 166 kts | 136° |
| 2026-05-06 12:30 | -30.02506 | -51.22024 | 2471 ft | 166 kts | 99° |
| 2026-05-06 12:30 | -30.02729 | -51.20754 | 2522 ft | 157 kts | 97° |
| 2026-05-06 12:30 | -30.02839 | -51.19534 | 2432 ft | 151 kts | 82° |
| 2026-05-06 12:31 | -30.02592 | -51.18409 | 2412 ft | 142 kts | 57° |
| 2026-05-06 12:31 | -30.02178 | -51.17377 | 2287 ft | 145 kts | 61° |
| 2026-05-06 12:31 | -30.01846 | -51.16302 | 2324 ft | 140 kts | 71° |
| 2026-05-06 12:31 | -30.01916 | -51.15189 | 2340 ft | 141 kts | 97° |
| 2026-05-06 12:32 | -30.02130 | -51.14049 | 2111 ft | 152 kts | 97° |
| 2026-05-06 12:32 | -30.02333 | -51.12855 | 1966 ft | 152 kts | 94° |
| 2026-05-06 12:32 | -30.02473 | -51.11643 | 1791 ft | 153 kts | 90° |
| 2026-05-06 12:32 | -30.02560 | -51.10428 | 1615 ft | 150 kts | 86° |
| 2026-05-06 12:33 | -30.02566 | -51.09238 | 1438 ft | 143 kts | 81° |
| 2026-05-06 12:33 | -30.02109 | -51.08439 | 1467 ft | 110 kts | 17° |
| 2026-05-06 12:33 | -30.01477 | -51.08647 | 1246 ft | 102 kts | 310° |
| 2026-05-06 12:33 | -30.01350 | -51.09455 | 1038 ft | 103 kts | 281° |
| 2026-05-06 12:34 | -30.01082 | -51.10128 | 959 ft | 94 kts | 303° |
| 2026-05-06 12:34 | -30.00873 | -51.10572 | 854 ft | 95 kts | 299° |
| 2026-05-06 12:34 | -30.00656 | -51.11222 | 858 ft | 83 kts | 291° |
| 2026-05-06 12:34 | -30.00403 | -51.11922 | 653 ft | 94 kts | 297° |
| 2026-05-06 12:35 | -30.00101 | -51.12564 | 577 ft | 91 kts | 300° |
| 2026-05-06 12:35 | -29.99819 | -51.13232 | 455 ft | 94 kts | 296° |
| 2026-05-06 12:35 | -29.99782 | -51.13326 | 438 ft | 95 kts | 296° |
| 2026-05-06 12:35 | -29.99587 | -51.14053 | 313 ft | 97 kts | 283° |
| 2026-05-06 12:36 | -29.99508 | -51.14823 | 158 ft | 96 kts | 273° |
| 2026-05-06 12:36 | -29.99497 | -51.15582 | 36 ft | 91 kts | 274° |
| 2026-05-06 12:36 | -29.99482 | -51.16215 | 24 ft | 66 kts | 278° |
| 2026-05-06 12:36 | -29.99494 | -51.16629 | 20 ft | 37 kts | 236° |
| 2026-05-06 12:37 | -29.99436 | -51.16735 | 19 ft | 12 kts | 330° |
| 2026-05-06 12:37 | -29.99366 | -51.16741 | 19 ft | 8 kts | 4° |